Time;durP1;ratioP1;P1;durP2;ratioP2;P2;SDS_P1;SDS_P2;PMS_P1;PMS_P2;Temp;Humidity;BMP_temperature;BMP_pressure;BME280_temperature;BME280_humidity;BME280_pressure;Samples;Min_cycle;Max_cycle;Signal;HPM_P1;HPM_P2
2023/11/19 00:00:51;;;;;;;0.55;0.55;;;4.80;99.90;;;;;;4426771;32;20591;-61
2023/11/19 00:03:16;;;;;;;0.32;0.32;;;4.90;99.90;;;;;;4426563;32;20086;-59
2023/11/19 00:05:42;;;;;;;0.40;0.40;;;4.90;99.90;;;;;;4432098;32;20124;-59
2023/11/19 00:08:08;;;;;;;0.37;0.37;;;4.90;99.90;;;;;;4429815;32;20116;-59
2023/11/19 00:10:34;;;;;;;0.50;0.50;;;4.90;99.90;;;;;;4427433;32;21139;-60
2023/11/19 00:12:59;;;;;;;0.45;0.45;;;4.90;99.90;;;;;;4428378;32;20074;-60
2023/11/19 00:15:25;;;;;;;0.65;0.65;;;5.00;99.90;;;;;;4428902;32;20141;-59
2023/11/19 00:17:50;;;;;;;0.60;0.60;;;5.00;99.90;;;;;;4430234;32;20069;-61
2023/11/19 00:20:18;;;;;;;0.40;0.40;;;5.00;99.90;;;;;;4428672;32;20069;-59
2023/11/19 00:22:43;;;;;;;0.47;0.47;;;5.10;99.90;;;;;;4425483;32;20082;-61
2023/11/19 00:25:09;;;;;;;0.80;0.73;;;5.00;99.90;;;;;;4428485;32;20505;-60
2023/11/19 00:27:35;;;;;;;0.50;0.50;;;5.00;99.90;;;;;;4428871;32;20085;-60
2023/11/19 00:30:01;;;;;;;0.62;0.62;;;5.00;99.90;;;;;;4429387;32;20431;-60
2023/11/19 00:32:26;;;;;;;0.80;0.80;;;5.10;99.90;;;;;;4423782;32;20557;-61
2023/11/19 00:34:52;;;;;;;0.37;0.37;;;5.10;99.90;;;;;;4427552;32;20069;-61
2023/11/19 00:37:17;;;;;;;0.40;0.40;;;5.20;99.90;;;;;;4426751;32;20081;-61
2023/11/19 00:39:43;;;;;;;1.62;0.85;;;5.20;99.90;;;;;;4428040;32;20080;-61
2023/11/19 00:42:10;;;;;;;0.55;0.52;;;5.30;99.90;;;;;;4426900;32;20073;-61
2023/11/19 00:44:35;;;;;;;0.30;0.30;;;5.20;99.90;;;;;;4427508;32;20077;-61
2023/11/19 00:47:01;;;;;;;0.60;0.60;;;5.20;99.90;;;;;;4423305;32;20403;-60
2023/11/19 00:49:27;;;;;;;0.50;0.50;;;5.20;99.90;;;;;;4431602;32;20825;-61
2023/11/19 00:51:52;;;;;;;0.47;0.47;;;5.20;99.90;;;;;;4430965;32;20082;-62
2023/11/19 00:54:18;;;;;;;0.30;0.30;;;5.20;99.90;;;;;;4429928;32;20138;-62
2023/11/19 00:56:44;;;;;;;0.80;0.70;;;5.10;99.90;;;;;;4430096;32;20543;-61
2023/11/19 00:59:10;;;;;;;0.57;0.57;;;5.10;99.90;;;;;;4431796;32;20076;-62
2023/11/19 01:01:36;;;;;;;0.50;0.50;;;5.10;99.90;;;;;;4427749;32;20189;-61
2023/11/19 01:04:01;;;;;;;0.40;0.40;;;5.10;99.90;;;;;;4430247;32;20065;-59
2023/11/19 01:06:29;;;;;;;0.75;0.75;;;5.10;99.90;;;;;;4432014;32;20520;-61
2023/11/19 01:08:56;;;;;;;0.50;0.50;;;5.10;99.90;;;;;;4430066;32;20073;-61
2023/11/19 01:11:22;;;;;;;0.30;0.30;;;5.00;99.90;;;;;;4434394;32;20532;-61
2023/11/19 01:13:48;;;;;;;5.05;1.58;;;5.00;99.90;;;;;;4425775;32;20061;-60
2023/11/19 01:16:13;;;;;;;0.40;0.40;;;5.10;99.90;;;;;;4429149;32;20115;-60
2023/11/19 01:18:39;;;;;;;0.50;0.50;;;5.10;99.90;;;;;;4431323;32;20073;-60
2023/11/19 01:21:05;;;;;;;2.37;1.48;;;5.10;99.90;;;;;;4429289;32;20081;-61
2023/11/19 01:23:30;;;;;;;0.90;0.90;;;5.10;99.90;;;;;;4429638;32;20062;-60
2023/11/19 01:25:56;;;;;;;0.40;0.40;;;5.20;99.90;;;;;;4430694;32;20081;-62
2023/11/19 01:28:21;;;;;;;1.90;0.55;;;5.20;99.90;;;;;;4429320;32;20060;-62
2023/11/19 01:30:50;;;;;;;0.60;0.60;;;5.20;99.90;;;;;;4431173;32;20058;-61
2023/11/19 01:33:15;;;;;;;0.40;0.40;;;5.10;99.90;;;;;;4429468;32;20074;-61
2023/11/19 01:35:41;;;;;;;0.50;0.50;;;5.10;99.90;;;;;;4434082;32;20074;-61
2023/11/19 01:38:08;;;;;;;0.50;0.50;;;5.20;99.90;;;;;;4431245;32;20136;-61
2023/11/19 01:40:34;;;;;;;0.40;0.40;;;5.20;99.90;;;;;;4430476;32;20078;-64
2023/11/19 01:42:59;;;;;;;0.60;0.60;;;5.20;99.90;;;;;;4431671;32;20419;-59
2023/11/19 01:45:32;;;;;;;2.67;0.95;;;5.10;99.90;;;;;;4426954;32;20655;-61
2023/11/19 01:48:00;;;;;;;0.75;0.75;;;5.10;99.90;;;;;;4426631;32;20053;-61
2023/11/19 01:50:26;;;;;;;0.75;0.65;;;5.20;99.90;;;;;;4429297;32;20652;-61
2023/11/19 01:52:53;;;;;;;0.60;0.60;;;5.20;99.90;;;;;;4429534;32;20132;-61
2023/11/19 01:55:20;;;;;;;21.27;3.92;;;5.20;99.90;;;;;;4426483;32;20119;-61
2023/11/19 01:57:48;;;;;;;0.30;0.30;;;5.10;99.90;;;;;;4432591;32;20065;-60
2023/11/19 02:00:14;;;;;;;0.50;0.50;;;5.20;99.90;;;;;;4428710;32;20070;-61
2023/11/19 02:02:40;;;;;;;0.60;0.60;;;5.20;99.90;;;;;;4429327;32;20056;-61
2023/11/19 02:05:06;;;;;;;0.50;0.50;;;5.20;99.90;;;;;;4431153;32;20066;-61
2023/11/19 02:07:32;;;;;;;0.30;0.30;;;5.20;99.90;;;;;;4430481;32;20085;-61
2023/11/19 02:10:00;;;;;;;0.35;0.35;;;5.20;99.90;;;;;;4430118;32;20090;-61
2023/11/19 02:12:28;;;;;;;0.30;0.30;;;5.20;99.90;;;;;;4430055;32;20065;-60
2023/11/19 02:14:53;;;;;;;0.43;0.43;;;5.20;99.90;;;;;;4429637;32;20583;-59
2023/11/19 02:17:34;;;;;;;0.60;0.60;;;5.20;99.90;;;;;;4428986;32;20366;-60
2023/11/19 02:20:00;;;;;;;0.52;0.52;;;5.30;99.90;;;;;;4430069;32;20093;-59
2023/11/19 02:22:26;;;;;;;0.30;0.30;;;5.20;99.90;;;;;;4428468;32;20537;-58
2023/11/19 02:24:58;;;;;;;0.30;0.30;;;5.20;99.90;;;;;;4426609;32;20414;-60
2023/11/19 02:27:36;;;;;;;0.25;0.25;;;5.20;99.90;;;;;;4427400;32;20068;-60
2023/11/19 02:30:03;;;;;;;0.40;0.40;;;5.20;99.90;;;;;;4429001;32;20064;-60
2023/11/19 02:32:30;;;;;;;0.60;0.60;;;5.20;99.90;;;;;;4427604;32;20089;-61
2023/11/19 02:34:56;;;;;;;0.40;0.40;;;5.20;99.90;;;;;;4427178;32;20065;-60
2023/11/19 02:37:21;;;;;;;0.60;0.60;;;5.30;99.90;;;;;;4429918;32;20662;-60
2023/11/19 02:39:47;;;;;;;0.30;0.30;;;5.40;99.90;;;;;;4429604;32;20073;-59
2023/11/19 02:42:13;;;;;;;0.30;0.30;;;5.40;99.90;;;;;;4427254;32;20065;-61
2023/11/19 02:44:39;;;;;;;0.30;0.30;;;5.40;99.90;;;;;;4429313;32;20112;-60
2023/11/19 02:47:07;;;;;;;0.47;0.47;;;5.30;99.90;;;;;;4428124;32;20620;-60
2023/11/19 02:49:33;;;;;;;0.22;0.22;;;5.30;99.90;;;;;;4428742;32;20074;-60
2023/11/19 02:51:59;;;;;;;0.40;0.40;;;5.30;99.90;;;;;;4432428;32;20581;-60
2023/11/19 02:54:27;;;;;;;0.62;0.62;;;5.40;99.90;;;;;;4429235;32;20533;-59
2023/11/19 02:56:55;;;;;;;0.30;0.30;;;5.30;99.90;;;;;;4426773;32;20081;-59
2023/11/19 02:59:27;;;;;;;0.40;0.40;;;5.30;99.90;;;;;;4425389;32;20077;-60
2023/11/19 03:01:54;;;;;;;0.30;0.30;;;5.30;99.90;;;;;;4430481;32;20516;-60
2023/11/19 03:04:20;;;;;;;0.30;0.30;;;5.30;99.90;;;;;;4428163;32;20074;-59
2023/11/19 03:06:46;;;;;;;0.30;0.30;;;5.30;99.90;;;;;;4428180;32;20116;-61
2023/11/19 03:09:12;;;;;;;0.37;0.37;;;5.30;99.90;;;;;;4426136;32;20097;-61
2023/11/19 03:11:38;;;;;;;0.20;0.20;;;5.30;99.90;;;;;;4429847;32;20643;-60
2023/11/19 03:14:03;;;;;;;0.60;0.60;;;5.20;99.90;;;;;;4428937;32;20065;-61
2023/11/19 03:16:29;;;;;;;0.55;0.40;;;5.30;99.90;;;;;;4428453;32;20742;-60
2023/11/19 03:18:55;;;;;;;0.40;0.40;;;5.30;99.90;;;;;;4428794;32;20466;-60
2023/11/19 03:21:29;;;;;;;0.30;0.30;;;5.30;99.90;;;;;;4429823;32;20073;-61
2023/11/19 03:23:55;;;;;;;0.60;0.60;;;5.40;99.90;;;;;;4416241;32;20069;-59
2023/11/19 03:26:21;;;;;;;0.60;0.60;;;5.40;99.90;;;;;;4426106;32;20065;-60
2023/11/19 03:28:46;;;;;;;0.30;0.30;;;5.30;99.90;;;;;;4427404;32;20501;-60
2023/11/19 03:31:11;;;;;;;0.30;0.30;;;5.30;99.90;;;;;;4425432;32;20301;-61
2023/11/19 03:33:37;;;;;;;0.40;0.40;;;5.30;99.90;;;;;;4426945;32;20391;-59
2023/11/19 03:36:03;;;;;;;0.40;0.40;;;5.20;99.90;;;;;;4428472;32;20125;-61
2023/11/19 03:38:28;;;;;;;0.40;0.40;;;5.10;99.90;;;;;;4427719;32;20074;-61
2023/11/19 03:40:54;;;;;;;0.30;0.30;;;5.10;99.90;;;;;;4427629;32;20089;-61
2023/11/19 03:43:19;;;;;;;0.30;0.30;;;5.00;99.90;;;;;;4431082;32;20068;-61
2023/11/19 03:45:45;;;;;;;2.00;0.62;;;5.00;99.90;;;;;;4429094;32;20089;-61
2023/11/19 03:48:10;;;;;;;0.60;0.60;;;5.00;99.90;;;;;;4427037;32;20517;-59
2023/11/19 03:50:35;;;;;;;0.30;0.30;;;5.00;99.90;;;;;;4428978;32;20636;-60
2023/11/19 03:53:02;;;;;;;0.30;0.30;;;5.00;99.90;;;;;;4426659;32;20077;-61
2023/11/19 03:55:29;;;;;;;0.45;0.45;;;4.90;99.90;;;;;;4428356;32;20069;-61
2023/11/19 03:57:54;;;;;;;0.30;0.30;;;4.90;99.90;;;;;;4429507;32;20661;-61
2023/11/19 04:00:20;;;;;;;0.50;0.50;;;4.90;99.90;;;;;;4430184;32;20065;-59
2023/11/19 04:02:46;;;;;;;0.65;0.65;;;4.90;99.90;;;;;;4430646;32;20073;-60
2023/11/19 04:05:12;;;;;;;0.40;0.40;;;5.00;99.90;;;;;;4429488;32;20121;-60
2023/11/19 04:07:38;;;;;;;0.32;0.32;;;5.10;99.90;;;;;;4429298;32;20605;-60
2023/11/19 04:10:04;;;;;;;0.47;0.47;;;5.00;99.90;;;;;;4428606;32;20070;-60
2023/11/19 04:12:29;;;;;;;0.30;0.30;;;5.00;99.90;;;;;;4425640;32;20671;-59
2023/11/19 04:14:56;;;;;;;0.30;0.30;;;4.90;99.90;;;;;;4427707;32;20085;-60
2023/11/19 04:17:22;;;;;;;0.73;0.73;;;4.90;99.90;;;;;;4430464;32;20068;-60
2023/11/19 04:19:48;;;;;;;0.40;0.40;;;5.00;99.90;;;;;;4426716;32;20540;-59
2023/11/19 04:22:14;;;;;;;1.37;0.70;;;4.90;99.90;;;;;;4428645;32;20285;-61
2023/11/19 04:24:40;;;;;;;0.30;0.30;;;5.00;99.90;;;;;;4434392;32;20118;-57
2023/11/19 04:27:06;;;;;;;0.30;0.30;;;5.00;99.90;;;;;;4433448;32;20057;-60
2023/11/19 04:29:32;;;;;;;0.65;0.65;;;5.00;99.90;;;;;;4430359;32;20073;-60
2023/11/19 04:31:57;;;;;;;0.30;0.30;;;5.00;99.90;;;;;;4430465;32;20136;-60
2023/11/19 04:34:23;;;;;;;0.50;0.50;;;4.90;99.90;;;;;;4432214;32;20061;-60
2023/11/19 04:36:49;;;;;;;0.80;0.70;;;4.90;99.90;;;;;;4430968;32;20069;-60
2023/11/19 04:39:15;;;;;;;0.77;0.77;;;4.90;99.90;;;;;;4430719;32;20226;-60
2023/11/19 04:41:49;;;;;;;0.40;0.40;;;4.90;99.90;;;;;;4430366;32;20061;-60
2023/11/19 04:44:16;;;;;;;0.30;0.30;;;4.80;99.90;;;;;;4430921;32;20069;-60
2023/11/19 04:46:44;;;;;;;0.62;0.62;;;4.90;99.90;;;;;;4433547;32;20065;-60
2023/11/19 04:49:10;;;;;;;1.27;0.55;;;4.90;99.90;;;;;;4432471;32;20482;-61
2023/11/19 04:51:41;;;;;;;0.60;0.60;;;4.90;99.90;;;;;;4428887;32;20132;-61
2023/11/19 04:54:08;;;;;;;0.25;0.25;;;5.00;99.90;;;;;;4430701;32;20073;-58
2023/11/19 04:56:35;;;;;;;0.30;0.30;;;5.00;99.90;;;;;;4432920;32;20074;-61
2023/11/19 04:59:00;;;;;;;0.40;0.40;;;5.00;99.90;;;;;;4429130;32;20082;-58
2023/11/19 05:01:25;;;;;;;1.00;0.60;;;5.00;99.90;;;;;;4427124;32;20094;-60
2023/11/19 05:03:51;;;;;;;0.90;0.80;;;5.00;99.90;;;;;;4431029;32;20073;-61
2023/11/19 05:06:16;;;;;;;0.40;0.40;;;5.00;99.90;;;;;;4430370;32;20427;-60
2023/11/19 05:08:42;;;;;;;0.30;0.30;;;4.90;99.90;;;;;;4427964;32;20074;-60
2023/11/19 05:11:07;;;;;;;0.35;0.35;;;4.90;99.90;;;;;;4427571;32;20061;-60
2023/11/19 05:13:33;;;;;;;0.47;0.47;;;4.90;99.90;;;;;;4431767;32;20076;-60
2023/11/19 05:15:58;;;;;;;0.52;0.52;;;4.90;99.90;;;;;;4430852;32;20069;-59
2023/11/19 05:18:24;;;;;;;0.40;0.40;;;4.90;99.90;;;;;;4428860;32;20062;-61
2023/11/19 05:20:49;;;;;;;0.50;0.50;;;4.90;99.90;;;;;;4430022;32;20430;-59
2023/11/19 05:23:15;;;;;;;0.50;0.50;;;5.00;99.90;;;;;;4429037;32;20232;-60
2023/11/19 05:25:40;;;;;;;0.37;0.37;;;4.90;99.90;;;;;;4428963;32;20077;-59
2023/11/19 05:28:05;;;;;;;0.40;0.40;;;4.80;99.90;;;;;;4428720;32;20459;-60
2023/11/19 05:30:31;;;;;;;0.30;0.30;;;4.80;99.90;;;;;;4429139;32;20061;-59
2023/11/19 05:32:56;;;;;;;0.32;0.32;;;4.80;99.90;;;;;;4428354;32;20064;-60
2023/11/19 05:35:22;;;;;;;3.53;1.52;;;4.80;99.90;;;;;;4427961;32;20081;-60
2023/11/19 05:37:47;;;;;;;0.40;0.40;;;4.80;99.90;;;;;;4429889;32;20220;-59
2023/11/19 05:40:14;;;;;;;0.30;0.30;;;4.80;99.90;;;;;;4429076;32;20086;-60
2023/11/19 05:42:40;;;;;;;0.50;0.50;;;4.90;99.90;;;;;;4433686;32;20093;-59
2023/11/19 05:45:07;;;;;;;0.30;0.30;;;4.90;99.90;;;;;;4429506;32;20113;-59
2023/11/19 05:47:33;;;;;;;0.40;0.40;;;4.90;99.90;;;;;;4427084;32;20050;-61
2023/11/19 05:49:58;;;;;;;0.50;0.50;;;5.00;99.90;;;;;;4428161;32;20443;-59
2023/11/19 05:52:24;;;;;;;0.50;0.50;;;5.00;99.90;;;;;;4429333;32;20416;-58
2023/11/19 05:54:51;;;;;;;0.52;0.52;;;5.00;99.90;;;;;;4430871;32;20070;-60
2023/11/19 05:57:23;;;;;;;0.30;0.30;;;5.00;99.90;;;;;;4428873;32;20073;-61
2023/11/19 05:59:49;;;;;;;0.70;0.70;;;5.00;99.90;;;;;;4433601;32;20069;-60
2023/11/19 06:02:15;;;;;;;0.30;0.30;;;5.00;99.90;;;;;;4429251;32;20536;-59
2023/11/19 06:04:41;;;;;;;16.17;2.22;;;5.00;99.90;;;;;;4433094;32;20072;-59
2023/11/19 06:07:06;;;;;;;0.55;0.55;;;5.00;99.90;;;;;;4431144;32;20062;-59
2023/11/19 06:09:33;;;;;;;0.45;0.45;;;5.00;99.90;;;;;;4430215;32;20069;-59
2023/11/19 06:12:01;;;;;;;0.47;0.47;;;5.00;99.90;;;;;;4431044;32;20057;-61
2023/11/19 06:14:27;;;;;;;0.45;0.45;;;5.00;99.90;;;;;;4432640;32;20093;-59
2023/11/19 06:16:52;;;;;;;0.60;0.60;;;4.90;99.90;;;;;;4429012;32;20081;-59
2023/11/19 06:19:18;;;;;;;0.68;0.68;;;4.90;99.90;;;;;;4429710;32;20077;-60
2023/11/19 06:21:43;;;;;;;0.70;0.70;;;5.00;99.90;;;;;;4432691;32;20057;-61
2023/11/19 06:24:09;;;;;;;0.22;0.22;;;4.90;99.90;;;;;;4427447;32;20488;-60
2023/11/19 06:26:34;;;;;;;0.32;0.32;;;4.90;99.90;;;;;;4430597;32;20081;-60
2023/11/19 06:29:00;;;;;;;0.30;0.30;;;5.00;99.90;;;;;;4428937;32;20082;-59
2023/11/19 06:31:25;;;;;;;0.40;0.40;;;5.00;99.90;;;;;;4426256;32;20517;-58
2023/11/19 06:33:51;;;;;;;0.37;0.37;;;5.00;99.90;;;;;;4428122;32;20077;-58
2023/11/19 06:36:16;;;;;;;0.40;0.40;;;5.00;99.90;;;;;;4429212;32;20085;-59
2023/11/19 06:38:43;;;;;;;0.50;0.50;;;5.00;99.90;;;;;;4429049;32;20089;-60
2023/11/19 06:41:09;;;;;;;0.50;0.50;;;5.10;99.90;;;;;;4422645;32;20127;-61
2023/11/19 06:43:35;;;;;;;0.30;0.30;;;5.10;99.90;;;;;;4428808;32;20335;-60
2023/11/19 06:46:01;;;;;;;0.50;0.50;;;5.10;99.90;;;;;;4426117;32;20065;-60
2023/11/19 06:48:27;;;;;;;0.50;0.50;;;5.10;99.90;;;;;;4428438;32;20453;-59
2023/11/19 06:50:52;;;;;;;0.40;0.40;;;5.20;99.90;;;;;;4430459;32;20099;-60
2023/11/19 06:53:18;;;;;;;0.30;0.30;;;5.20;99.90;;;;;;4424838;32;20086;-61
2023/11/19 06:55:43;;;;;;;0.30;0.30;;;5.20;99.90;;;;;;4430151;32;20085;-59
2023/11/19 06:58:08;;;;;;;0.32;0.32;;;5.20;99.90;;;;;;4428668;32;20061;-60
2023/11/19 07:00:36;;;;;;;0.73;0.70;;;5.20;99.90;;;;;;4427999;32;20462;-60
2023/11/19 07:03:01;;;;;;;0.28;0.28;;;5.20;99.90;;;;;;4428788;32;20124;-59
2023/11/19 07:05:28;;;;;;;0.30;0.30;;;5.20;99.90;;;;;;4427531;32;20138;-59
2023/11/19 07:07:54;;;;;;;0.47;0.47;;;5.20;99.90;;;;;;4428566;32;20065;-60
2023/11/19 07:10:19;;;;;;;2.62;0.80;;;5.30;99.90;;;;;;4428004;32;20504;-60
2023/11/19 07:12:45;;;;;;;0.50;0.50;;;5.30;99.90;;;;;;4431666;32;20122;-61
2023/11/19 07:15:12;;;;;;;0.60;0.60;;;5.40;99.90;;;;;;4428862;32;20065;-61
2023/11/19 07:17:39;;;;;;;2.85;0.95;;;5.30;99.90;;;;;;4428369;32;20066;-60
2023/11/19 07:20:05;;;;;;;0.55;0.55;;;5.30;99.90;;;;;;4425270;32;20179;-60
2023/11/19 07:22:31;;;;;;;0.30;0.30;;;5.40;99.90;;;;;;4426109;32;20139;-60
2023/11/19 07:24:57;;;;;;;0.40;0.40;;;5.40;99.90;;;;;;4430680;32;20328;-59
2023/11/19 07:27:24;;;;;;;0.45;0.45;;;5.50;99.90;;;;;;4425917;32;20526;-60
2023/11/19 07:29:49;;;;;;;1.45;0.93;;;5.50;99.90;;;;;;4424213;32;20155;-60
2023/11/19 07:32:15;;;;;;;0.40;0.40;;;5.50;99.90;;;;;;4427817;32;20301;-59
2023/11/19 07:34:40;;;;;;;0.37;0.37;;;5.50;99.90;;;;;;4430483;32;20247;-60
2023/11/19 07:37:05;;;;;;;0.30;0.30;;;5.60;99.90;;;;;;4428854;32;20318;-59
2023/11/19 07:39:31;;;;;;;0.30;0.30;;;5.60;99.90;;;;;;4429960;32;20435;-60
2023/11/19 07:41:57;;;;;;;0.40;0.40;;;5.70;99.90;;;;;;4428187;32;20126;-60
2023/11/19 07:44:22;;;;;;;0.30;0.30;;;5.70;99.90;;;;;;4429555;32;20442;-60
2023/11/19 07:46:48;;;;;;;0.30;0.30;;;5.70;99.90;;;;;;4430277;32;20572;-61
2023/11/19 07:49:14;;;;;;;0.50;0.50;;;5.70;99.90;;;;;;4427212;32;20073;-59
2023/11/19 07:51:39;;;;;;;0.30;0.30;;;5.80;99.90;;;;;;4426418;32;20116;-58
2023/11/19 07:54:05;;;;;;;0.20;0.20;;;5.90;99.90;;;;;;4423866;32;20625;-59
2023/11/19 07:56:31;;;;;;;0.60;0.60;;;5.90;99.90;;;;;;4431141;32;20164;-59
2023/11/19 07:58:57;;;;;;;0.35;0.35;;;5.90;99.90;;;;;;4425274;32;20085;-60
2023/11/19 08:01:23;;;;;;;0.37;0.37;;;5.90;99.90;;;;;;4427056;32;20074;-59
2023/11/19 08:03:49;;;;;;;0.43;0.43;;;5.80;99.90;;;;;;4428177;32;20405;-60
2023/11/19 08:06:14;;;;;;;0.50;0.50;;;5.90;99.90;;;;;;4433051;32;20092;-60
2023/11/19 08:08:40;;;;;;;0.20;0.20;;;6.00;99.90;;;;;;4428813;32;20478;-59
2023/11/19 08:11:05;;;;;;;0.40;0.40;;;6.00;99.90;;;;;;4429745;32;20085;-60
2023/11/19 08:13:31;;;;;;;0.40;0.40;;;6.10;99.90;;;;;;4426862;32;20135;-61
2023/11/19 08:15:58;;;;;;;0.30;0.30;;;6.20;99.90;;;;;;4429462;32;20069;-60
2023/11/19 08:18:24;;;;;;;1.73;0.88;;;6.20;99.90;;;;;;4428158;32;20414;-57
2023/11/19 08:20:52;;;;;;;0.50;0.50;;;6.20;99.90;;;;;;4426831;32;20089;-60
2023/11/19 08:23:18;;;;;;;0.40;0.40;;;6.20;99.90;;;;;;4425525;32;20136;-60
2023/11/19 08:25:44;;;;;;;1.10;0.90;;;6.30;99.90;;;;;;4426499;32;20754;-61
2023/11/19 08:28:09;;;;;;;1.27;0.45;;;6.40;99.90;;;;;;4426187;32;20057;-59
2023/11/19 08:30:35;;;;;;;1.40;1.10;;;6.40;99.90;;;;;;4427507;32;20110;-61
2023/11/19 08:33:02;;;;;;;0.32;0.32;;;6.50;99.90;;;;;;4426476;32;20116;-61
2023/11/19 08:35:28;;;;;;;0.40;0.40;;;6.60;99.90;;;;;;4427067;32;20061;-59
2023/11/19 08:37:54;;;;;;;0.47;0.47;;;6.60;99.90;;;;;;4428453;32;20089;-60
2023/11/19 08:40:19;;;;;;;0.30;0.30;;;6.60;99.90;;;;;;4426721;32;20066;-59
2023/11/19 08:42:45;;;;;;;0.30;0.30;;;6.70;99.90;;;;;;4429552;32;20066;-60
2023/11/19 08:45:11;;;;;;;0.20;0.20;;;6.80;99.90;;;;;;4428483;32;20070;-61
2023/11/19 08:47:38;;;;;;;3.47;1.48;;;6.90;99.90;;;;;;4425908;32;21282;-60
2023/11/19 08:50:04;;;;;;;0.40;0.40;;;7.00;99.90;;;;;;4427016;32;20431;-60
2023/11/19 08:52:30;;;;;;;0.30;0.30;;;7.00;99.90;;;;;;4426602;32;20102;-59
2023/11/19 08:54:55;;;;;;;1.10;0.50;;;7.10;99.90;;;;;;4427752;32;20128;-60
2023/11/19 08:57:21;;;;;;;0.30;0.30;;;7.20;99.90;;;;;;4428372;32;20549;-60
2023/11/19 08:59:47;;;;;;;0.28;0.28;;;7.30;99.90;;;;;;4428184;32;20120;-60
2023/11/19 09:02:12;;;;;;;0.30;0.30;;;7.30;99.90;;;;;;4425185;32;20089;-60
2023/11/19 09:04:37;;;;;;;0.30;0.30;;;7.40;99.90;;;;;;4426236;32;20081;-61
2023/11/19 09:07:03;;;;;;;0.47;0.47;;;7.40;99.90;;;;;;4433009;32;20710;-61
2023/11/19 09:09:29;;;;;;;0.52;0.50;;;7.40;99.90;;;;;;4426564;32;20132;-61
2023/11/19 09:11:55;;;;;;;0.22;0.22;;;7.50;99.90;;;;;;4432093;32;20077;-60
2023/11/19 09:14:25;;;;;;;0.98;0.98;;;7.60;99.90;;;;;;4429440;32;20081;-60
2023/11/19 09:16:51;;;;;;;1.42;1.08;;;7.60;99.90;;;;;;4433690;32;20070;-60
2023/11/19 09:19:17;;;;;;;0.77;0.50;;;7.70;99.90;;;;;;4430846;32;20074;-61
2023/11/19 09:21:43;;;;;;;0.40;0.40;;;7.70;99.90;;;;;;4432576;32;20057;-60
2023/11/19 09:24:08;;;;;;;0.30;0.30;;;7.80;99.90;;;;;;4428629;32;20159;-60
2023/11/19 09:26:35;;;;;;;0.40;0.40;;;7.90;99.90;;;;;;4429401;32;20472;-59
2023/11/19 09:29:01;;;;;;;1.42;0.75;;;8.10;99.90;;;;;;4428549;32;20085;-60
2023/11/19 09:31:26;;;;;;;1.23;0.70;;;8.20;99.90;;;;;;4426346;32;21362;-61
2023/11/19 09:33:52;;;;;;;0.70;0.70;;;8.30;99.90;;;;;;4426582;32;20197;-60
2023/11/19 09:36:19;;;;;;;0.30;0.30;;;8.50;99.90;;;;;;4429690;32;20081;-60
2023/11/19 09:38:44;;;;;;;0.52;0.52;;;8.60;99.90;;;;;;4431953;32;20096;-60
2023/11/19 09:41:13;;;;;;;1.48;0.85;;;8.80;99.90;;;;;;4427894;32;20112;-61
2023/11/19 09:43:40;;;;;;;2.28;1.37;;;8.90;99.90;;;;;;4426019;32;20062;-60
2023/11/19 09:46:11;;;;;;;1.33;0.80;;;9.00;99.90;;;;;;4429076;32;20116;-60
2023/11/19 09:48:37;;;;;;;3.00;1.95;;;9.00;99.90;;;;;;4429048;32;20081;-59
2023/11/19 09:51:04;;;;;;;0.50;0.50;;;9.10;99.90;;;;;;4428387;32;20540;-61
2023/11/19 09:53:30;;;;;;;0.65;0.65;;;9.10;99.90;;;;;;4429809;32;20097;-60
2023/11/19 09:55:56;;;;;;;2.30;0.90;;;9.20;99.90;;;;;;4431026;32;20069;-60
2023/11/19 09:58:22;;;;;;;0.40;0.40;;;9.30;99.90;;;;;;4429414;32;20073;-61
2023/11/19 10:00:49;;;;;;;0.30;0.30;;;9.40;99.90;;;;;;4429118;32;20540;-60
2023/11/19 10:03:15;;;;;;;0.40;0.40;;;9.40;99.90;;;;;;4430100;32;20081;-61
2023/11/19 10:05:41;;;;;;;0.70;0.70;;;9.50;99.90;;;;;;4432186;32;20057;-60
2023/11/19 10:08:07;;;;;;;0.50;0.50;;;9.50;99.90;;;;;;4428590;32;20089;-61
2023/11/19 10:10:33;;;;;;;0.30;0.30;;;9.60;99.90;;;;;;4428402;32;20088;-61
2023/11/19 10:13:00;;;;;;;0.40;0.40;;;9.60;99.90;;;;;;4425749;32;20070;-61
2023/11/19 10:15:26;;;;;;;0.30;0.30;;;9.60;99.90;;;;;;4425146;32;20152;-59
2023/11/19 10:17:55;;;;;;;1.80;0.82;;;9.70;99.90;;;;;;4425415;32;20112;-60
2023/11/19 10:20:20;;;;;;;2.65;0.70;;;9.80;99.90;;;;;;4428537;32;20496;-60
2023/11/19 10:22:46;;;;;;;0.40;0.40;;;9.80;99.90;;;;;;4427381;32;20143;-59
2023/11/19 10:25:27;;;;;;;0.95;0.70;;;9.90;99.90;;;;;;4427608;32;20061;-61
2023/11/19 10:27:54;;;;;;;0.40;0.40;;;9.90;99.90;;;;;;4428965;32;20220;-60
2023/11/19 10:30:24;;;;;;;0.30;0.30;;;10.00;99.90;;;;;;4426568;32;20072;-61
2023/11/19 10:33:08;;;;;;;0.30;0.30;;;10.10;99.90;;;;;;4425378;32;20648;-61
2023/11/19 10:35:36;;;;;;;0.45;0.45;;;10.10;99.90;;;;;;4429209;32;20240;-60
2023/11/19 10:38:15;;;;;;;0.55;0.55;;;10.10;99.90;;;;;;4430623;32;20128;-61
2023/11/19 10:40:41;;;;;;;1.95;0.65;;;10.20;99.90;;;;;;4429054;32;20143;-61
2023/11/19 10:43:07;;;;;;;0.70;0.55;;;10.30;99.90;;;;;;4415082;32;20062;-61
2023/11/19 10:45:34;;;;;;;0.40;0.40;;;10.30;99.90;;;;;;4428131;32;20124;-61
2023/11/19 10:48:00;;;;;;;0.82;0.82;;;10.40;99.90;;;;;;4428511;32;20510;-60
2023/11/19 10:50:26;;;;;;;4.05;1.75;;;10.50;99.90;;;;;;4431275;32;20074;-61
2023/11/19 10:52:58;;;;;;;0.55;0.55;;;10.60;99.90;;;;;;4430175;32;20135;-60
2023/11/19 10:55:27;;;;;;;1.12;1.02;;;10.70;99.90;;;;;;4427225;32;20065;-60
2023/11/19 10:57:58;;;;;;;0.50;0.45;;;10.70;99.90;;;;;;4429967;32;20109;-59
2023/11/19 11:00:25;;;;;;;0.30;0.30;;;10.80;99.90;;;;;;4428320;32;20061;-60
2023/11/19 11:02:56;;;;;;;0.85;0.85;;;10.80;99.90;;;;;;4414875;32;20243;-61
2023/11/19 11:05:22;;;;;;;0.75;0.50;;;10.90;99.90;;;;;;4430353;32;20150;-61
2023/11/19 11:07:50;;;;;;;1.02;0.90;;;11.00;99.90;;;;;;4427328;32;20064;-61
2023/11/19 11:10:18;;;;;;;0.98;0.77;;;11.00;99.90;;;;;;4424722;32;20102;-60
2023/11/19 11:12:43;;;;;;;0.50;0.50;;;11.00;99.90;;;;;;4429886;32;20525;-61
2023/11/19 11:15:12;;;;;;;0.70;0.62;;;11.00;99.90;;;;;;4427743;32;20077;-61
2023/11/19 11:17:39;;;;;;;0.50;0.50;;;11.10;99.90;;;;;;4428322;32;20489;-61
2023/11/19 11:20:08;;;;;;;0.40;0.40;;;11.00;99.90;;;;;;4425649;32;20193;-60
2023/11/19 11:22:53;;;;;;;1.85;1.25;;;11.00;99.90;;;;;;4429669;32;20513;-61
2023/11/19 11:25:37;;;;;;;0.73;0.70;;;11.00;99.90;;;;;;4429363;32;20089;-61
2023/11/19 11:28:14;;;;;;;0.32;0.32;;;11.00;99.90;;;;;;4428532;32;20085;-61
2023/11/19 11:30:53;;;;;;;1.15;1.05;;;11.00;99.90;;;;;;4425558;32;20073;-61
2023/11/19 11:33:34;;;;;;;1.87;1.52;;;11.10;99.90;;;;;;4427345;32;20160;-61
2023/11/19 11:36:12;;;;;;;0.68;0.68;;;11.10;99.90;;;;;;4429749;32;20120;-61
2023/11/19 11:38:41;;;;;;;2.65;1.05;;;11.20;99.90;;;;;;4428327;32;20069;-61
2023/11/19 11:41:25;;;;;;;0.60;0.60;;;11.40;99.90;;;;;;4428510;32;20073;-61
2023/11/19 11:43:52;;;;;;;1.98;0.73;;;11.70;99.90;;;;;;4427190;32;20089;-60
2023/11/19 11:46:36;;;;;;;0.40;0.40;;;12.10;99.90;;;;;;4426553;32;20077;-61
2023/11/19 11:49:04;;;;;;;4.37;2.05;;;12.50;99.90;;;;;;4428818;32;20073;-61
2023/11/19 11:51:49;;;;;;;1.17;0.70;;;12.90;99.90;;;;;;4425358;32;83073;-61
2023/11/19 11:54:20;;;;;;;0.45;0.45;;;13.00;99.90;;;;;;4426813;32;20558;-61
2023/11/19 11:57:10;;;;;;;0.80;0.80;;;13.10;99.90;;;;;;4427803;32;20090;-62
2023/11/19 11:59:45;;;;;;;0.60;0.60;;;13.00;99.90;;;;;;4429852;32;20070;-60
2023/11/19 12:02:13;;;;;;;2.05;1.08;;;12.70;99.90;;;;;;4427506;32;20062;-60
2023/11/19 12:04:40;;;;;;;0.85;0.85;;;12.50;99.90;;;;;;4425701;32;20045;-61
2023/11/19 12:07:12;;;;;;;1.30;1.20;;;12.40;99.90;;;;;;4428946;32;20216;-60
2023/11/19 12:09:41;;;;;;;0.40;0.40;;;12.20;99.90;;;;;;4427766;32;20130;-61
2023/11/19 12:12:14;;;;;;;0.80;0.80;;;12.20;99.90;;;;;;4427192;32;20092;-61
2023/11/19 12:15:00;;;;;;;3.72;1.30;;;12.10;99.90;;;;;;4427096;32;20298;-61
2023/11/19 12:17:35;;;;;;;0.30;0.30;;;12.00;99.90;;;;;;4428679;32;21455;-61
2023/11/19 12:20:05;;;;;;;1.58;0.60;;;12.00;99.90;;;;;;4427454;32;20081;-61
2023/11/19 12:22:31;;;;;;;21.87;4.12;;;11.90;99.90;;;;;;4427952;32;20073;-61
2023/11/19 12:24:56;;;;;;;0.40;0.40;;;11.90;99.90;;;;;;4428275;32;20076;-61
2023/11/19 12:27:22;;;;;;;6.85;0.77;;;11.90;99.90;;;;;;4427982;32;20077;-60
2023/11/19 12:29:48;;;;;;;1.15;1.10;;;11.90;99.90;;;;;;4425651;32;20485;-61
2023/11/19 12:32:14;;;;;;;0.40;0.40;;;11.90;99.90;;;;;;4425417;32;20501;-61
2023/11/19 12:34:39;;;;;;;14.05;2.22;;;11.90;99.90;;;;;;4424666;32;20120;-61
2023/11/19 12:37:05;;;;;;;2.97;0.75;;;11.90;99.90;;;;;;4427273;32;20081;-59
2023/11/19 12:39:31;;;;;;;1.85;1.17;;;11.90;99.90;;;;;;4425462;32;20131;-60
2023/11/19 12:41:59;;;;;;;0.70;0.70;;;11.90;99.90;;;;;;4425312;32;20331;-59
2023/11/19 12:44:25;;;;;;;0.65;0.60;;;11.90;99.90;;;;;;4426752;32;20121;-60
2023/11/19 12:47:11;;;;;;;0.85;0.85;;;12.00;99.90;;;;;;4427310;32;20077;-61
2023/11/19 12:49:37;;;;;;;0.85;0.85;;;12.00;99.90;;;;;;4427596;32;20070;-60
2023/11/19 12:52:11;;;;;;;1.67;1.40;;;12.00;99.90;;;;;;4429062;32;20119;-61
2023/11/19 12:54:36;;;;;;;0.73;0.73;;;11.90;99.90;;;;;;4427786;32;20082;-60